sensor_id;sensor_type;location;lat;lon;timestamp;temperature;humidity
10431;DHT22;5262;59.958;17.726;2022-08-24T00:02:18;10.80;99.90
10431;DHT22;5262;59.958;17.726;2022-08-24T00:04:43;10.80;99.90
10431;DHT22;5262;59.958;17.726;2022-08-24T00:07:09;10.80;99.90
10431;DHT22;5262;59.958;17.726;2022-08-24T00:09:35;10.70;99.90
10431;DHT22;5262;59.958;17.726;2022-08-24T00:12:02;10.70;99.90
10431;DHT22;5262;59.958;17.726;2022-08-24T00:14:29;10.70;99.90
10431;DHT22;5262;59.958;17.726;2022-08-24T00:16:56;10.60;99.90
10431;DHT22;5262;59.958;17.726;2022-08-24T00:19:22;10.50;99.90
10431;DHT22;5262;59.958;17.726;2022-08-24T00:21:48;10.50;99.90
10431;DHT22;5262;59.958;17.726;2022-08-24T00:24:14;10.50;99.90
10431;DHT22;5262;59.958;17.726;2022-08-24T00:26:40;10.50;99.90
10431;DHT22;5262;59.958;17.726;2022-08-24T00:29:06;10.40;99.90
10431;DHT22;5262;59.958;17.726;2022-08-24T00:31:32;10.40;99.90
10431;DHT22;5262;59.958;17.726;2022-08-24T00:33:57;10.40;99.90
10431;DHT22;5262;59.958;17.726;2022-08-24T00:36:24;10.30;99.90
10431;DHT22;5262;59.958;17.726;2022-08-24T00:38:50;10.20;99.90
10431;DHT22;5262;59.958;17.726;2022-08-24T00:41:16;10.20;99.90
10431;DHT22;5262;59.958;17.726;2022-08-24T00:43:54;10.20;99.90
10431;DHT22;5262;59.958;17.726;2022-08-24T00:46:43;10.20;99.90
10431;DHT22;5262;59.958;17.726;2022-08-24T00:52:00;10.10;99.90
10431;DHT22;5262;59.958;17.726;2022-08-24T00:54:31;10.10;99.90
10431;DHT22;5262;59.958;17.726;2022-08-24T00:56:59;10.00;99.90
10431;DHT22;5262;59.958;17.726;2022-08-24T00:59:33;10.00;99.90
10431;DHT22;5262;59.958;17.726;2022-08-24T01:02:04;10.00;99.90
10431;DHT22;5262;59.958;17.726;2022-08-24T01:04:35;10.00;99.90
10431;DHT22;5262;59.958;17.726;2022-08-24T01:07:02;10.00;99.90
10431;DHT22;5262;59.958;17.726;2022-08-24T01:09:29;9.90;99.90
10431;DHT22;5262;59.958;17.726;2022-08-24T01:11:54;9.90;99.90
10431;DHT22;5262;59.958;17.726;2022-08-24T01:14:21;9.90;99.90
10431;DHT22;5262;59.958;17.726;2022-08-24T01:16:47;9.90;99.90
10431;DHT22;5262;59.958;17.726;2022-08-24T01:19:37;9.80;99.90
10431;DHT22;5262;59.958;17.726;2022-08-24T01:24:29;9.80;99.90
10431;DHT22;5262;59.958;17.726;2022-08-24T01:26:55;9.80;99.90
10431;DHT22;5262;59.958;17.726;2022-08-24T01:29:25;9.80;99.90
10431;DHT22;5262;59.958;17.726;2022-08-24T01:31:53;9.70;99.90
10431;DHT22;5262;59.958;17.726;2022-08-24T01:34:18;9.70;99.90
10431;DHT22;5262;59.958;17.726;2022-08-24T01:36:53;9.60;99.90
10431;DHT22;5262;59.958;17.726;2022-08-24T01:39:28;9.50;99.90
10431;DHT22;5262;59.958;17.726;2022-08-24T01:41:55;9.50;99.90
10431;DHT22;5262;59.958;17.726;2022-08-24T01:44:23;9.40;99.90
10431;DHT22;5262;59.958;17.726;2022-08-24T01:46:51;9.40;99.90
10431;DHT22;5262;59.958;17.726;2022-08-24T01:49:19;9.40;99.90
10431;DHT22;5262;59.958;17.726;2022-08-24T01:51:45;9.40;99.90
10431;DHT22;5262;59.958;17.726;2022-08-24T01:54:12;9.40;99.90
10431;DHT22;5262;59.958;17.726;2022-08-24T01:56:38;9.40;99.90
10431;DHT22;5262;59.958;17.726;2022-08-24T01:59:04;9.30;99.90
10431;DHT22;5262;59.958;17.726;2022-08-24T02:01:39;9.30;99.90
10431;DHT22;5262;59.958;17.726;2022-08-24T02:04:07;9.30;99.90
10431;DHT22;5262;59.958;17.726;2022-08-24T02:06:34;9.30;99.90
10431;DHT22;5262;59.958;17.726;2022-08-24T02:09:00;9.20;99.90
10431;DHT22;5262;59.958;17.726;2022-08-24T02:11:27;9.20;99.90
10431;DHT22;5262;59.958;17.726;2022-08-24T02:13:52;9.10;99.90
10431;DHT22;5262;59.958;17.726;2022-08-24T02:16:18;9.10;99.90
10431;DHT22;5262;59.958;17.726;2022-08-24T02:18:44;9.10;99.90
10431;DHT22;5262;59.958;17.726;2022-08-24T02:21:11;9.00;99.90
10431;DHT22;5262;59.958;17.726;2022-08-24T02:23:39;9.10;99.90
10431;DHT22;5262;59.958;17.726;2022-08-24T02:26:06;8.90;99.90
10431;DHT22;5262;59.958;17.726;2022-08-24T02:28:33;9.00;99.90
10431;DHT22;5262;59.958;17.726;2022-08-24T02:30:59;9.00;99.90
10431;DHT22;5262;59.958;17.726;2022-08-24T02:33:25;8.90;99.90
10431;DHT22;5262;59.958;17.726;2022-08-24T02:35:51;8.90;99.90
10431;DHT22;5262;59.958;17.726;2022-08-24T02:38:19;8.90;99.90
10431;DHT22;5262;59.958;17.726;2022-08-24T02:40:45;8.90;99.90
10431;DHT22;5262;59.958;17.726;2022-08-24T02:43:11;8.80;99.90
10431;DHT22;5262;59.958;17.726;2022-08-24T02:45:39;8.80;99.90
10431;DHT22;5262;59.958;17.726;2022-08-24T02:48:05;8.80;99.90
10431;DHT22;5262;59.958;17.726;2022-08-24T02:50:30;8.80;99.90
10431;DHT22;5262;59.958;17.726;2022-08-24T02:52:56;8.80;99.90
10431;DHT22;5262;59.958;17.726;2022-08-24T02:55:22;8.80;99.90
10431;DHT22;5262;59.958;17.726;2022-08-24T02:57:48;8.70;99.90
10431;DHT22;5262;59.958;17.726;2022-08-24T03:00:18;8.70;99.90
10431;DHT22;5262;59.958;17.726;2022-08-24T03:02:44;8.70;99.90
10431;DHT22;5262;59.958;17.726;2022-08-24T03:05:10;8.60;99.90
10431;DHT22;5262;59.958;17.726;2022-08-24T03:07:36;8.60;99.90
10431;DHT22;5262;59.958;17.726;2022-08-24T03:10:04;8.60;99.90
10431;DHT22;5262;59.958;17.726;2022-08-24T03:12:30;8.60;99.90
10431;DHT22;5262;59.958;17.726;2022-08-24T03:14:56;8.60;99.90
10431;DHT22;5262;59.958;17.726;2022-08-24T03:17:21;8.50;99.90
10431;DHT22;5262;59.958;17.726;2022-08-24T03:19:48;8.50;99.90
10431;DHT22;5262;59.958;17.726;2022-08-24T03:22:15;8.50;99.90
10431;DHT22;5262;59.958;17.726;2022-08-24T03:24:40;8.40;99.90
10431;DHT22;5262;59.958;17.726;2022-08-24T03:27:06;8.50;99.90
10431;DHT22;5262;59.958;17.726;2022-08-24T03:29:32;8.50;99.90
10431;DHT22;5262;59.958;17.726;2022-08-24T03:31:59;8.40;99.90
10431;DHT22;5262;59.958;17.726;2022-08-24T03:34:25;8.40;99.90
10431;DHT22;5262;59.958;17.726;2022-08-24T03:36:50;8.40;99.90
10431;DHT22;5262;59.958;17.726;2022-08-24T03:39:16;8.40;99.90
10431;DHT22;5262;59.958;17.726;2022-08-24T03:41:42;8.40;99.90
10431;DHT22;5262;59.958;17.726;2022-08-24T03:44:08;8.40;99.90
10431;DHT22;5262;59.958;17.726;2022-08-24T03:46:35;8.40;99.90
10431;DHT22;5262;59.958;17.726;2022-08-24T03:49:04;8.40;99.90
10431;DHT22;5262;59.958;17.726;2022-08-24T03:51:30;8.50;99.90
10431;DHT22;5262;59.958;17.726;2022-08-24T03:53:57;8.50;99.90
10431;DHT22;5262;59.958;17.726;2022-08-24T03:56:24;8.40;99.90
10431;DHT22;5262;59.958;17.726;2022-08-24T03:58:50;8.40;99.90
10431;DHT22;5262;59.958;17.726;2022-08-24T04:01:16;8.40;99.90
10431;DHT22;5262;59.958;17.726;2022-08-24T04:03:43;8.40;99.90
10431;DHT22;5262;59.958;17.726;2022-08-24T04:06:12;8.50;99.90
10431;DHT22;5262;59.958;17.726;2022-08-24T04:08:38;8.50;99.90
10431;DHT22;5262;59.958;17.726;2022-08-24T04:11:10;8.50;99.90
10431;DHT22;5262;59.958;17.726;2022-08-24T04:13:36;8.60;99.90
10431;DHT22;5262;59.958;17.726;2022-08-24T04:16:10;8.50;99.90
10431;DHT22;5262;59.958;17.726;2022-08-24T04:18:36;8.60;99.90
10431;DHT22;5262;59.958;17.726;2022-08-24T04:21:02;8.60;99.90
10431;DHT22;5262;59.958;17.726;2022-08-24T04:23:29;8.60;99.90
10431;DHT22;5262;59.958;17.726;2022-08-24T04:25:55;8.60;99.90
10431;DHT22;5262;59.958;17.726;2022-08-24T04:28:25;8.60;99.90
10431;DHT22;5262;59.958;17.726;2022-08-24T04:30:52;8.60;99.90
10431;DHT22;5262;59.958;17.726;2022-08-24T04:33:18;8.60;99.90
10431;DHT22;5262;59.958;17.726;2022-08-24T04:35:46;8.70;99.90
10431;DHT22;5262;59.958;17.726;2022-08-24T04:38:13;8.70;99.90
10431;DHT22;5262;59.958;17.726;2022-08-24T04:40:40;8.70;99.90
10431;DHT22;5262;59.958;17.726;2022-08-24T04:43:06;8.70;99.90
10431;DHT22;5262;59.958;17.726;2022-08-24T04:45:36;8.70;99.90
10431;DHT22;5262;59.958;17.726;2022-08-24T04:48:02;8.80;99.90
10431;DHT22;5262;59.958;17.726;2022-08-24T04:50:28;8.90;99.90
10431;DHT22;5262;59.958;17.726;2022-08-24T04:52:54;8.90;99.90
10431;DHT22;5262;59.958;17.726;2022-08-24T04:55:19;8.90;99.90
10431;DHT22;5262;59.958;17.726;2022-08-24T04:57:45;8.90;99.90
10431;DHT22;5262;59.958;17.726;2022-08-24T05:00:11;9.00;99.90
10431;DHT22;5262;59.958;17.726;2022-08-24T05:02:37;9.10;99.90
10431;DHT22;5262;59.958;17.726;2022-08-24T05:05:09;9.10;99.90
10431;DHT22;5262;59.958;17.726;2022-08-24T05:07:36;9.30;99.90
10431;DHT22;5262;59.958;17.726;2022-08-24T05:10:04;9.30;99.90
10431;DHT22;5262;59.958;17.726;2022-08-24T05:12:30;9.40;99.90
10431;DHT22;5262;59.958;17.726;2022-08-24T05:14:56;9.50;99.90
10431;DHT22;5262;59.958;17.726;2022-08-24T05:17:23;9.60;99.90
10431;DHT22;5262;59.958;17.726;2022-08-24T05:19:49;9.60;99.90
10431;DHT22;5262;59.958;17.726;2022-08-24T05:22:15;9.70;99.90
10431;DHT22;5262;59.958;17.726;2022-08-24T05:24:41;9.80;99.90
10431;DHT22;5262;59.958;17.726;2022-08-24T05:27:07;9.90;99.90
10431;DHT22;5262;59.958;17.726;2022-08-24T05:29:33;10.10;99.90
10431;DHT22;5262;59.958;17.726;2022-08-24T05:31:59;10.30;99.90
10431;DHT22;5262;59.958;17.726;2022-08-24T05:34:25;10.30;99.90
10431;DHT22;5262;59.958;17.726;2022-08-24T05:36:51;10.50;99.90
10431;DHT22;5262;59.958;17.726;2022-08-24T05:39:17;10.60;99.90
10431;DHT22;5262;59.958;17.726;2022-08-24T05:41:44;10.80;99.90
10431;DHT22;5262;59.958;17.726;2022-08-24T05:44:12;10.90;99.90
10431;DHT22;5262;59.958;17.726;2022-08-24T05:46:38;10.90;99.90
10431;DHT22;5262;59.958;17.726;2022-08-24T05:49:04;11.00;99.90
10431;DHT22;5262;59.958;17.726;2022-08-24T05:51:29;11.20;99.90
10431;DHT22;5262;59.958;17.726;2022-08-24T05:53:56;11.30;99.90
10431;DHT22;5262;59.958;17.726;2022-08-24T05:56:22;11.50;99.90
10431;DHT22;5262;59.958;17.726;2022-08-24T05:58:48;11.80;99.90
10431;DHT22;5262;59.958;17.726;2022-08-24T06:01:20;12.00;99.90
10431;DHT22;5262;59.958;17.726;2022-08-24T06:03:47;12.30;99.90
10431;DHT22;5262;59.958;17.726;2022-08-24T06:06:15;12.50;99.90
10431;DHT22;5262;59.958;17.726;2022-08-24T06:08:43;12.70;99.90
10431;DHT22;5262;59.958;17.726;2022-08-24T06:11:11;12.90;99.90
10431;DHT22;5262;59.958;17.726;2022-08-24T06:13:38;13.10;99.90
10431;DHT22;5262;59.958;17.726;2022-08-24T06:16:10;13.40;99.90
10431;DHT22;5262;59.958;17.726;2022-08-24T06:18:37;13.60;99.90
10431;DHT22;5262;59.958;17.726;2022-08-24T06:21:12;13.80;99.90
10431;DHT22;5262;59.958;17.726;2022-08-24T06:23:40;14.00;99.90
10431;DHT22;5262;59.958;17.726;2022-08-24T06:26:06;14.10;99.90
10431;DHT22;5262;59.958;17.726;2022-08-24T06:28:51;14.30;99.90
10431;DHT22;5262;59.958;17.726;2022-08-24T06:31:18;14.60;99.90
10431;DHT22;5262;59.958;17.726;2022-08-24T06:33:44;14.80;99.90
10431;DHT22;5262;59.958;17.726;2022-08-24T06:36:09;15.10;99.90
10431;DHT22;5262;59.958;17.726;2022-08-24T06:38:35;15.40;99.90
10431;DHT22;5262;59.958;17.726;2022-08-24T06:41:02;15.50;99.90
10431;DHT22;5262;59.958;17.726;2022-08-24T06:43:28;15.90;99.90
10431;DHT22;5262;59.958;17.726;2022-08-24T06:45:57;16.40;99.90
10431;DHT22;5262;59.958;17.726;2022-08-24T06:48:23;16.50;99.90
10431;DHT22;5262;59.958;17.726;2022-08-24T06:50:49;16.90;99.90
10431;DHT22;5262;59.958;17.726;2022-08-24T06:53:15;17.10;99.90
10431;DHT22;5262;59.958;17.726;2022-08-24T06:58:14;17.80;99.90
10431;DHT22;5262;59.958;17.726;2022-08-24T07:00:44;18.40;98.80
10431;DHT22;5262;59.958;17.726;2022-08-24T07:03:10;18.90;95.90
10431;DHT22;5262;59.958;17.726;2022-08-24T07:05:36;19.30;92.50
10431;DHT22;5262;59.958;17.726;2022-08-24T07:08:03;20.00;91.00
10431;DHT22;5262;59.958;17.726;2022-08-24T07:10:29;20.50;85.50
10431;DHT22;5262;59.958;17.726;2022-08-24T07:12:55;21.00;82.70
10431;DHT22;5262;59.958;17.726;2022-08-24T07:15:21;21.20;73.00
10431;DHT22;5262;59.958;17.726;2022-08-24T07:17:47;21.30;71.10
10431;DHT22;5262;59.958;17.726;2022-08-24T07:20:13;21.30;72.10
10431;DHT22;5262;59.958;17.726;2022-08-24T07:22:39;21.30;71.80
10431;DHT22;5262;59.958;17.726;2022-08-24T07:25:05;20.80;70.50
10431;DHT22;5262;59.958;17.726;2022-08-24T07:27:32;20.50;68.70
10431;DHT22;5262;59.958;17.726;2022-08-24T07:29:58;20.70;70.80
10431;DHT22;5262;59.958;17.726;2022-08-24T07:32:24;21.10;71.50
10431;DHT22;5262;59.958;17.726;2022-08-24T07:34:49;21.70;67.80
10431;DHT22;5262;59.958;17.726;2022-08-24T07:37:16;22.20;67.10
10431;DHT22;5262;59.958;17.726;2022-08-24T07:39:41;22.50;65.20
10431;DHT22;5262;59.958;17.726;2022-08-24T07:42:07;23.00;66.20
10431;DHT22;5262;59.958;17.726;2022-08-24T07:44:33;23.40;64.60
10431;DHT22;5262;59.958;17.726;2022-08-24T07:47:00;23.60;62.20
10431;DHT22;5262;59.958;17.726;2022-08-24T07:49:26;23.80;61.00
10431;DHT22;5262;59.958;17.726;2022-08-24T07:51:51;24.00;59.50
10431;DHT22;5262;59.958;17.726;2022-08-24T07:54:20;24.10;59.30
10431;DHT22;5262;59.958;17.726;2022-08-24T07:56:47;25.10;56.60
10431;DHT22;5262;59.958;17.726;2022-08-24T07:59:15;25.60;55.60
10431;DHT22;5262;59.958;17.726;2022-08-24T08:01:41;25.60;54.30
10431;DHT22;5262;59.958;17.726;2022-08-24T08:04:07;25.20;52.90
10431;DHT22;5262;59.958;17.726;2022-08-24T08:06:33;24.80;53.60
10431;DHT22;5262;59.958;17.726;2022-08-24T08:08:59;24.90;54.50
10431;DHT22;5262;59.958;17.726;2022-08-24T08:11:26;24.50;53.30
10431;DHT22;5262;59.958;17.726;2022-08-24T08:13:52;24.70;55.00
10431;DHT22;5262;59.958;17.726;2022-08-24T08:16:18;24.40;53.80
10431;DHT22;5262;59.958;17.726;2022-08-24T08:18:46;24.80;55.80
10431;DHT22;5262;59.958;17.726;2022-08-24T08:21:11;25.80;53.90
10431;DHT22;5262;59.958;17.726;2022-08-24T08:23:56;26.50;53.30
10431;DHT22;5262;59.958;17.726;2022-08-24T08:26:41;26.70;50.60
10431;DHT22;5262;59.958;17.726;2022-08-24T08:29:08;27.30;49.90
10431;DHT22;5262;59.958;17.726;2022-08-24T08:31:36;26.70;49.40
10431;DHT22;5262;59.958;17.726;2022-08-24T08:34:02;27.10;51.00
10431;DHT22;5262;59.958;17.726;2022-08-24T08:36:28;27.90;49.60
10431;DHT22;5262;59.958;17.726;2022-08-24T08:38:54;27.60;49.40
10431;DHT22;5262;59.958;17.726;2022-08-24T08:56:08;29.20;46.20
10431;DHT22;5262;59.958;17.726;2022-08-24T08:58:56;28.30;45.90
10431;DHT22;5262;59.958;17.726;2022-08-24T09:02:07;28.50;47.10
10431;DHT22;5262;59.958;17.726;2022-08-24T09:10:51;27.40;48.30
10431;DHT22;5262;59.958;17.726;2022-08-24T09:13:43;27.30;48.80
10431;DHT22;5262;59.958;17.726;2022-08-24T09:16:23;27.40;49.10
10431;DHT22;5262;59.958;17.726;2022-08-24T09:22:11;26.90;50.40
10431;DHT22;5262;59.958;17.726;2022-08-24T09:27:41;26.40;50.20
10431;DHT22;5262;59.958;17.726;2022-08-24T09:30:18;27.00;49.30
10431;DHT22;5262;59.958;17.726;2022-08-24T09:43:58;29.80;43.70
10431;DHT22;5262;59.958;17.726;2022-08-24T10:00:46;31.20;42.50
10431;DHT22;5262;59.958;17.726;2022-08-24T10:03:44;30.70;41.90
10431;DHT22;5262;59.958;17.726;2022-08-24T10:09:33;30.20;43.50
10431;DHT22;5262;59.958;17.726;2022-08-24T10:12:27;30.10;43.00
10431;DHT22;5262;59.958;17.726;2022-08-24T10:15:08;30.50;42.80
10431;DHT22;5262;59.958;17.726;2022-08-24T10:25:49;31.20;41.60
10431;DHT22;5262;59.958;17.726;2022-08-24T10:31:40;28.90;45.80
10431;DHT22;5262;59.958;17.726;2022-08-24T10:42:43;29.30;45.30
10431;DHT22;5262;59.958;17.726;2022-08-24T10:53:47;30.50;43.30
10431;DHT22;5262;59.958;17.726;2022-08-24T10:56:17;29.90;45.80
10431;DHT22;5262;59.958;17.726;2022-08-24T10:58:51;29.50;45.50
10431;DHT22;5262;59.958;17.726;2022-08-24T11:01:35;29.50;47.50
10431;DHT22;5262;59.958;17.726;2022-08-24T11:04:09;28.80;45.10
10431;DHT22;5262;59.958;17.726;2022-08-24T11:07:27;30.60;44.70
10431;DHT22;5262;59.958;17.726;2022-08-24T11:09:53;30.60;43.70
10431;DHT22;5262;59.958;17.726;2022-08-24T11:14:57;32.10;40.70
10431;DHT22;5262;59.958;17.726;2022-08-24T11:17:26;32.00;41.80
10431;DHT22;5262;59.958;17.726;2022-08-24T11:19:52;30.70;41.80
10431;DHT22;5262;59.958;17.726;2022-08-24T11:25:31;29.80;42.80
10431;DHT22;5262;59.958;17.726;2022-08-24T11:28:19;28.20;47.20
10431;DHT22;5262;59.958;17.726;2022-08-24T11:30:45;26.60;48.10
10431;DHT22;5262;59.958;17.726;2022-08-24T11:33:32;26.60;50.80
10431;DHT22;5262;59.958;17.726;2022-08-24T11:36:00;28.70;46.70
10431;DHT22;5262;59.958;17.726;2022-08-24T11:38:28;28.90;46.90
10431;DHT22;5262;59.958;17.726;2022-08-24T11:41:15;28.90;48.20
10431;DHT22;5262;59.958;17.726;2022-08-24T11:51:40;29.10;44.50
10431;DHT22;5262;59.958;17.726;2022-08-24T11:54:24;27.90;46.40
10431;DHT22;5262;59.958;17.726;2022-08-24T11:57:07;28.80;46.00
10431;DHT22;5262;59.958;17.726;2022-08-24T11:59:42;29.10;45.20
10431;DHT22;5262;59.958;17.726;2022-08-24T12:05:06;28.70;43.60
10431;DHT22;5262;59.958;17.726;2022-08-24T12:18:44;27.80;46.60
10431;DHT22;5262;59.958;17.726;2022-08-24T12:21:19;27.80;46.20
10431;DHT22;5262;59.958;17.726;2022-08-24T12:24:12;27.30;47.30
10431;DHT22;5262;59.958;17.726;2022-08-24T12:26:49;27.50;47.90
10431;DHT22;5262;59.958;17.726;2022-08-24T12:30:15;27.50;48.80
10431;DHT22;5262;59.958;17.726;2022-08-24T12:32:17;27.10;48.80
10431;DHT22;5262;59.958;17.726;2022-08-24T12:37:42;26.60;49.40
10431;DHT22;5262;59.958;17.726;2022-08-24T12:43:13;26.40;50.00
10431;DHT22;5262;59.958;17.726;2022-08-24T12:45:41;26.80;48.90
10431;DHT22;5262;59.958;17.726;2022-08-24T13:02:03;25.80;48.10
10431;DHT22;5262;59.958;17.726;2022-08-24T13:04:36;26.10;49.30
10431;DHT22;5262;59.958;17.726;2022-08-24T13:07:27;25.70;48.90
10431;DHT22;5262;59.958;17.726;2022-08-24T13:26:17;24.90;52.50
10431;DHT22;5262;59.958;17.726;2022-08-24T13:28:46;25.00;54.10
10431;DHT22;5262;59.958;17.726;2022-08-24T13:31:48;25.30;52.30
10431;DHT22;5262;59.958;17.726;2022-08-24T13:50:47;25.50;53.20
10431;DHT22;5262;59.958;17.726;2022-08-24T14:06:55;24.90;53.00
10431;DHT22;5262;59.958;17.726;2022-08-24T14:12:12;25.10;52.70
10431;DHT22;5262;59.958;17.726;2022-08-24T14:17:49;25.10;51.70
10431;DHT22;5262;59.958;17.726;2022-08-24T14:40:32;24.60;52.80
10431;DHT22;5262;59.958;17.726;2022-08-24T15:05:38;23.60;52.90
10431;DHT22;5262;59.958;17.726;2022-08-24T15:13:26;23.50;56.10
10431;DHT22;5262;59.958;17.726;2022-08-24T15:16:10;23.60;54.30
10431;DHT22;5262;59.958;17.726;2022-08-24T15:29:29;23.40;54.40
10431;DHT22;5262;59.958;17.726;2022-08-24T15:32:03;23.30;54.40
10431;DHT22;5262;59.958;17.726;2022-08-24T15:34:46;23.40;56.80
10431;DHT22;5262;59.958;17.726;2022-08-24T15:37:32;23.50;54.10
10431;DHT22;5262;59.958;17.726;2022-08-24T15:39:58;23.20;56.70
10431;DHT22;5262;59.958;17.726;2022-08-24T15:42:27;23.20;56.50
10431;DHT22;5262;59.958;17.726;2022-08-24T15:44:53;23.20;55.40
10431;DHT22;5262;59.958;17.726;2022-08-24T15:47:32;23.10;57.20
10431;DHT22;5262;59.958;17.726;2022-08-24T15:52:46;22.90;57.30
10431;DHT22;5262;59.958;17.726;2022-08-24T15:55:31;22.80;56.40
10431;DHT22;5262;59.958;17.726;2022-08-24T16:00:48;22.60;56.90
10431;DHT22;5262;59.958;17.726;2022-08-24T16:03:49;22.70;56.90
10431;DHT22;5262;59.958;17.726;2022-08-24T16:11:46;22.30;56.50
10431;DHT22;5262;59.958;17.726;2022-08-24T16:14:36;22.20;57.60
10431;DHT22;5262;59.958;17.726;2022-08-24T16:20:00;22.00;59.40
10431;DHT22;5262;59.958;17.726;2022-08-24T16:22:36;22.00;59.20
10431;DHT22;5262;59.958;17.726;2022-08-24T16:25:20;21.80;60.30
10431;DHT22;5262;59.958;17.726;2022-08-24T16:28:00;21.70;61.80
10431;DHT22;5262;59.958;17.726;2022-08-24T16:30:40;21.60;61.40
10431;DHT22;5262;59.958;17.726;2022-08-24T16:33:06;21.60;62.00
10431;DHT22;5262;59.958;17.726;2022-08-24T16:35:32;21.40;61.70
10431;DHT22;5262;59.958;17.726;2022-08-24T16:37:59;21.30;61.10
10431;DHT22;5262;59.958;17.726;2022-08-24T16:40:25;21.10;63.60
10431;DHT22;5262;59.958;17.726;2022-08-24T16:42:51;21.10;64.90
10431;DHT22;5262;59.958;17.726;2022-08-24T16:45:20;21.00;63.10
10431;DHT22;5262;59.958;17.726;2022-08-24T16:47:47;20.90;64.10
10431;DHT22;5262;59.958;17.726;2022-08-24T16:50:17;20.80;65.50
10431;DHT22;5262;59.958;17.726;2022-08-24T16:52:43;20.60;65.70
10431;DHT22;5262;59.958;17.726;2022-08-24T16:55:10;20.50;62.90
10431;DHT22;5262;59.958;17.726;2022-08-24T16:57:36;20.50;62.00
10431;DHT22;5262;59.958;17.726;2022-08-24T17:00:05;20.40;65.10
10431;DHT22;5262;59.958;17.726;2022-08-24T17:02:32;20.20;63.80
10431;DHT22;5262;59.958;17.726;2022-08-24T17:04:58;20.10;66.80
10431;DHT22;5262;59.958;17.726;2022-08-24T17:07:27;20.00;69.30
10431;DHT22;5262;59.958;17.726;2022-08-24T17:09:54;19.80;70.60
10431;DHT22;5262;59.958;17.726;2022-08-24T17:12:20;19.70;70.60
10431;DHT22;5262;59.958;17.726;2022-08-24T17:14:46;19.60;70.10
10431;DHT22;5262;59.958;17.726;2022-08-24T17:17:14;19.40;72.10
10431;DHT22;5262;59.958;17.726;2022-08-24T17:19:41;19.20;72.20
10431;DHT22;5262;59.958;17.726;2022-08-24T17:22:07;19.00;73.80
10431;DHT22;5262;59.958;17.726;2022-08-24T17:24:33;18.90;73.70
10431;DHT22;5262;59.958;17.726;2022-08-24T17:26:59;18.70;74.80
10431;DHT22;5262;59.958;17.726;2022-08-24T17:29:25;18.60;76.50
10431;DHT22;5262;59.958;17.726;2022-08-24T17:31:51;18.40;77.70
10431;DHT22;5262;59.958;17.726;2022-08-24T17:34:19;18.30;80.10
10431;DHT22;5262;59.958;17.726;2022-08-24T17:36:46;18.20;80.10
10431;DHT22;5262;59.958;17.726;2022-08-24T17:39:13;18.00;82.10
10431;DHT22;5262;59.958;17.726;2022-08-24T17:41:39;17.90;88.50
10431;DHT22;5262;59.958;17.726;2022-08-24T17:44:07;17.90;88.20
10431;DHT22;5262;59.958;17.726;2022-08-24T17:46:34;17.80;89.40
10431;DHT22;5262;59.958;17.726;2022-08-24T17:49:00;17.60;89.40
10431;DHT22;5262;59.958;17.726;2022-08-24T17:51:26;17.50;91.30
10431;DHT22;5262;59.958;17.726;2022-08-24T17:53:51;17.60;93.80
10431;DHT22;5262;59.958;17.726;2022-08-24T17:56:17;17.40;93.70
10431;DHT22;5262;59.958;17.726;2022-08-24T17:58:43;17.50;95.80
10431;DHT22;5262;59.958;17.726;2022-08-24T18:01:28;17.30;97.00
10431;DHT22;5262;59.958;17.726;2022-08-24T18:03:54;17.20;98.20
10431;DHT22;5262;59.958;17.726;2022-08-24T18:06:22;17.00;96.90
10431;DHT22;5262;59.958;17.726;2022-08-24T18:08:49;16.70;97.70
10431;DHT22;5262;59.958;17.726;2022-08-24T18:11:15;16.60;99.30
10431;DHT22;5262;59.958;17.726;2022-08-24T18:13:42;16.60;99.30
10431;DHT22;5262;59.958;17.726;2022-08-24T18:16:16;16.40;99.90
10431;DHT22;5262;59.958;17.726;2022-08-24T18:18:42;16.40;99.90
10431;DHT22;5262;59.958;17.726;2022-08-24T18:21:08;16.10;99.90
10431;DHT22;5262;59.958;17.726;2022-08-24T18:23:34;16.20;99.90
10431;DHT22;5262;59.958;17.726;2022-08-24T18:26:00;16.00;99.90
10431;DHT22;5262;59.958;17.726;2022-08-24T18:28:26;16.00;99.90
10431;DHT22;5262;59.958;17.726;2022-08-24T18:30:52;15.90;99.90
10431;DHT22;5262;59.958;17.726;2022-08-24T18:33:18;15.70;99.90
10431;DHT22;5262;59.958;17.726;2022-08-24T18:35:43;15.50;99.90
10431;DHT22;5262;59.958;17.726;2022-08-24T18:38:11;15.60;99.90
10431;DHT22;5262;59.958;17.726;2022-08-24T18:40:37;15.60;99.90
10431;DHT22;5262;59.958;17.726;2022-08-24T18:43:03;15.60;99.90
10431;DHT22;5262;59.958;17.726;2022-08-24T18:45:30;15.60;99.90
10431;DHT22;5262;59.958;17.726;2022-08-24T18:47:56;15.30;99.90
10431;DHT22;5262;59.958;17.726;2022-08-24T18:50:22;15.20;99.90
10431;DHT22;5262;59.958;17.726;2022-08-24T18:52:48;15.30;99.90
10431;DHT22;5262;59.958;17.726;2022-08-24T18:55:14;15.10;99.90
10431;DHT22;5262;59.958;17.726;2022-08-24T18:57:40;15.10;99.90
10431;DHT22;5262;59.958;17.726;2022-08-24T19:00:07;15.00;99.90
10431;DHT22;5262;59.958;17.726;2022-08-24T19:02:34;15.40;99.90
10431;DHT22;5262;59.958;17.726;2022-08-24T19:07:35;15.00;99.90
10431;DHT22;5262;59.958;17.726;2022-08-24T19:10:02;14.80;99.90
10431;DHT22;5262;59.958;17.726;2022-08-24T19:12:29;14.70;99.90
10431;DHT22;5262;59.958;17.726;2022-08-24T19:14:58;14.70;99.90
10431;DHT22;5262;59.958;17.726;2022-08-24T19:17:25;14.50;99.90
10431;DHT22;5262;59.958;17.726;2022-08-24T19:19:51;14.60;99.90
10431;DHT22;5262;59.958;17.726;2022-08-24T19:22:18;14.60;99.90
10431;DHT22;5262;59.958;17.726;2022-08-24T19:24:44;14.50;99.90
10431;DHT22;5262;59.958;17.726;2022-08-24T19:27:10;14.40;99.90
10431;DHT22;5262;59.958;17.726;2022-08-24T19:29:36;14.30;99.90
10431;DHT22;5262;59.958;17.726;2022-08-24T19:32:02;14.40;99.90
10431;DHT22;5262;59.958;17.726;2022-08-24T19:34:29;14.30;99.90
10431;DHT22;5262;59.958;17.726;2022-08-24T19:36:55;14.30;99.90
10431;DHT22;5262;59.958;17.726;2022-08-24T19:39:21;14.40;99.90
10431;DHT22;5262;59.958;17.726;2022-08-24T19:41:48;14.30;99.90
10431;DHT22;5262;59.958;17.726;2022-08-24T19:44:17;14.40;99.90
10431;DHT22;5262;59.958;17.726;2022-08-24T19:47:03;14.40;99.90
10431;DHT22;5262;59.958;17.726;2022-08-24T19:49:29;14.20;99.90
10431;DHT22;5262;59.958;17.726;2022-08-24T19:51:55;14.10;99.90
10431;DHT22;5262;59.958;17.726;2022-08-24T19:54:21;13.90;99.90
10431;DHT22;5262;59.958;17.726;2022-08-24T19:56:47;14.00;99.90
10431;DHT22;5262;59.958;17.726;2022-08-24T19:59:24;14.00;99.90
10431;DHT22;5262;59.958;17.726;2022-08-24T20:01:51;13.90;99.90
10431;DHT22;5262;59.958;17.726;2022-08-24T20:04:16;13.50;99.90
10431;DHT22;5262;59.958;17.726;2022-08-24T20:06:42;13.40;99.90
10431;DHT22;5262;59.958;17.726;2022-08-24T20:09:08;13.60;99.90
10431;DHT22;5262;59.958;17.726;2022-08-24T20:11:35;13.50;99.90
10431;DHT22;5262;59.958;17.726;2022-08-24T20:14:07;13.70;99.90
10431;DHT22;5262;59.958;17.726;2022-08-24T20:16:38;13.40;99.90